Terminal Aerodrome Forecast
Issued by NWS

Home | Current Version | Previous Version | Text Only | Print | Product List | Glossary On
Versions: 1 2 3 4 5 6 7 8 9 10 11 12 13 14 15
000
FTAK31 PAJN 230500
TAFASI
TAF
PASI 230521Z 2306/2406 32013KT P6SM BKN060 OVC100
      TEMPO 2306/2310 BKN025 OVC050
     FM231000 VRB05KT P6SM BKN060 OVC100
     FM231500 VRB04KT P6SM VCSH BKN050 OVC100
     FM232100 VRB04KT P6SM BKN060 OVC120=

USA.gov is the U.S. government's official web portal to all federal, state and local government web resources and services.